Time;durP1;ratioP1;P1;durP2;ratioP2;P2;SDS_P1;SDS_P2;PMS_P1;PMS_P2;Temp;Humidity;BMP_temperature;BMP_pressure;BME280_temperature;BME280_humidity;BME280_pressure;Samples;Min_cycle;Max_cycle;Signal;HPM_P1;HPM_P2
2022/08/08 00:02:11;;;;;;;8.40;4.85;;;;;;;22.70;100.00;100044.27;1622936;86;21052;-66
2022/08/08 00:05:04;;;;;;;6.15;4.85;;;;;;;22.63;100.00;100045.62;1631624;86;21515;-67
2022/08/08 00:08:07;;;;;;;13.28;5.08;;;;;;;22.60;100.00;100054.17;1653514;86;20999;-67
2022/08/08 00:10:55;;;;;;;10.65;4.85;;;;;;;22.73;100.00;100052.49;1651118;86;27248;-67
2022/08/08 00:14:04;;;;;;;8.83;4.72;;;;;;;22.89;100.00;100055.61;1650053;86;21150;-66
2022/08/08 00:17:05;;;;;;;11.97;4.85;;;;;;;22.96;100.00;100055.03;1581297;90;21118;-66
2022/08/08 00:19:42;;;;;;;6.90;4.50;;;;;;;23.01;100.00;100045.45;1613526;88;21843;-65
2022/08/08 00:22:14;;;;;;;5.87;4.53;;;;;;;22.98;100.00;100046.21;1675999;83;21546;-66
2022/08/08 00:24:47;;;;;;;8.40;4.67;;;;;;;22.99;100.00;100046.44;1696614;83;21534;-65
2022/08/08 00:27:14;;;;;;;9.93;4.92;;;;;;;23.03;100.00;100042.25;1650342;86;21023;-66
2022/08/08 00:29:59;;;;;;;7.78;5.00;;;;;;;22.99;100.00;100042.22;1644697;86;21039;-65
2022/08/08 00:32:37;;;;;;;6.22;4.22;;;;;;;22.96;100.00;100039.59;1643955;86;21286;-67
2022/08/08 00:35:41;;;;;;;8.30;4.70;;;;;;;22.89;100.00;100040.16;1638237;86;21081;-66
2022/08/08 00:38:32;;;;;;;7.05;4.58;;;;;;;22.91;100.00;100040.58;1636518;86;21572;-66
2022/08/08 00:41:31;;;;;;;10.03;4.97;;;;;;;22.91;100.00;100042.77;1635365;87;21100;-65
2022/08/08 00:44:08;;;;;;;10.38;4.60;;;;;;;23.04;100.00;100041.84;1691277;84;21117;-65
2022/08/08 00:47:15;;;;;;;15.20;5.83;;;;;;;23.00;100.00;100043.82;1686203;84;21282;-66
2022/08/08 00:50:23;;;;;;;13.70;5.67;;;;;;;23.00;100.00;100041.63;1676190;84;21255;-66
2022/08/08 00:53:12;;;;;;;10.20;5.60;;;;;;;22.88;100.00;100037.16;1690035;84;21578;-66
2022/08/08 00:56:23;;;;;;;11.43;5.92;;;;;;;22.81;100.00;100042.12;1691678;84;21023;-66
2022/08/08 00:59:23;;;;;;;15.88;6.87;;;;;;;22.75;100.00;100041.69;1658218;86;21020;-67
2022/08/08 01:02:25;;;;;;;16.10;6.67;;;;;;;22.75;100.00;100037.47;1693471;83;21224;-66
2022/08/08 01:05:31;;;;;;;10.48;6.47;;;;;;;22.79;100.00;100044.52;1653483;85;21057;-66
2022/08/08 01:08:44;;;;;;;7.97;5.80;;;;;;;22.86;100.00;100041.73;1693114;83;21555;-67
2022/08/08 01:11:55;;;;;;;12.43;6.03;;;;;;;22.79;100.00;100035.47;1694718;83;21038;-65
2022/08/08 01:14:53;;;;;;;10.82;6.78;;;;;;;22.78;100.00;100034.47;1668990;83;21134;-67
2022/08/08 01:17:43;;;;;;;9.23;6.12;;;;;;;22.61;100.00;100030.57;1649046;85;21160;-66
2022/08/08 01:20:52;;;;;;;11.12;7.12;;;;;;;22.47;100.00;100032.64;1695201;83;21068;-67
2022/08/08 01:24:07;;;;;;;14.85;7.22;;;;;;;22.34;100.00;100034.14;1697210;83;21046;-65
2022/08/08 01:27:13;;;;;;;6.60;5.65;;;;;;;22.33;100.00;100029.12;1693399;83;21046;-65
2022/08/08 01:30:20;;;;;;;15.65;6.53;;;;;;;22.38;100.00;100029.38;1689022;84;21067;-65
2022/08/08 01:33:23;;;;;;;9.55;6.70;;;;;;;22.33;100.00;100038.95;1693206;83;21508;-68
2022/08/08 01:36:19;;;;;;;14.18;6.75;;;;;;;22.30;100.00;100036.10;1652455;85;21035;-66
2022/08/08 01:39:08;;;;;;;11.08;6.10;;;;;;;22.29;100.00;100045.14;1690642;83;21609;-66
2022/08/08 01:42:16;;;;;;;12.90;5.92;;;;;;;22.37;100.00;100039.79;1689211;83;21089;-65
2022/08/08 01:45:34;;;;;;;12.60;6.42;;;;;;;22.47;100.00;100044.45;1692868;83;21137;-66
2022/08/08 01:48:32;;;;;;;16.62;6.80;;;;;;;22.48;100.00;100044.06;1698444;83;21812;-66
2022/08/08 01:51:45;;;;;;;13.45;6.97;;;;;;;22.36;100.00;100040.18;1692887;84;20992;-65
2022/08/08 01:54:47;;;;;;;12.85;6.95;;;;;;;22.36;100.00;100043.80;1607247;89;21073;-65
2022/08/08 01:57:44;;;;;;;8.30;6.67;;;;;;;22.23;100.00;100044.68;1612039;87;21144;-65
2022/08/08 02:00:24;;;;;;;10.78;6.28;;;;;;;22.15;100.00;100046.41;1670587;85;21047;-67
2022/08/08 02:03:07;;;;;;;16.10;6.95;;;;;;;22.06;100.00;100050.34;1645540;85;21547;-65
2022/08/08 02:05:51;;;;;;;19.70;8.68;;;;;;;22.11;100.00;100054.20;1658890;85;21071;-66
2022/08/08 02:08:57;;;;;;;16.50;7.37;;;;;;;22.13;100.00;100042.00;1671462;85;21215;-66
2022/08/08 02:11:36;;;;;;;11.83;6.83;;;;;;;22.00;100.00;100044.30;1675588;83;21422;-67
2022/08/08 02:14:51;;;;;;;11.93;7.55;;;;;;;22.10;100.00;100041.96;1703178;83;21563;-66
2022/08/08 02:17:48;;;;;;;16.15;8.75;;;;;;;22.09;100.00;100049.56;1692820;83;21335;-65
2022/08/08 02:20:38;;;;;;;15.75;8.25;;;;;;;22.22;100.00;100054.89;1694480;83;21044;-66
2022/08/08 02:23:15;;;;;;;12.47;6.87;;;;;;;22.21;100.00;100055.48;1697440;83;21014;-68
2022/08/08 02:26:06;;;;;;;19.23;8.93;;;;;;;22.21;100.00;100051.89;1695446;83;21040;-67
2022/08/08 02:29:04;;;;;;;13.62;8.15;;;;;;;22.20;100.00;100051.66;1689727;84;21047;-65
2022/08/08 02:31:57;;;;;;;10.03;8.48;;;;;;;22.12;100.00;100047.41;1695074;82;21537;-64
2022/08/08 02:34:35;;;;;;;15.80;7.05;;;;;;;22.13;100.00;100053.81;1691694;83;21034;-65
2022/08/08 02:37:28;;;;;;;11.43;7.50;;;;;;;22.10;100.00;100054.59;1702705;83;21512;-65
2022/08/08 02:40:12;;;;;;;9.85;6.92;;;;;;;22.02;100.00;100059.34;1694021;83;21492;-67
2022/08/08 02:43:10;;;;;;;11.83;7.70;;;;;;;21.99;100.00;100056.69;1687255;83;21016;-65
2022/08/08 02:45:52;;;;;;;12.07;7.00;;;;;;;21.97;100.00;100059.69;1696976;83;21524;-65
2022/08/08 02:49:15;;;;;;;9.30;7.10;;;;;;;22.01;100.00;100064.13;1688848;83;21110;-65
2022/08/08 02:51:57;;;;;;;12.70;6.85;;;;;;;22.01;100.00;100061.33;1695380;82;21093;-65
2022/08/08 02:54:59;;;;;;;9.83;7.40;;;;;;;22.03;100.00;100055.91;1695800;83;21008;-68
2022/08/08 02:58:10;;;;;;;9.05;7.35;;;;;;;22.05;100.00;100061.36;1696592;83;21072;-67
2022/08/08 03:01:13;;;;;;;13.10;7.10;;;;;;;22.12;100.00;100063.42;1677446;84;21221;-67
2022/08/08 03:04:18;;;;;;;12.58;7.33;;;;;;;21.94;100.00;100059.84;1677087;84;21021;-66
2022/08/08 03:07:28;;;;;;;12.43;7.62;;;;;;;21.81;100.00;100064.93;1680667;84;21048;-65
2022/08/08 03:10:23;;;;;;;9.70;6.65;;;;;;;21.76;100.00;100066.06;1672598;84;21497;-65
2022/08/08 03:13:27;;;;;;;9.63;6.53;;;;;;;21.69;100.00;100077.19;1676475;84;21485;-64
2022/08/08 03:16:11;;;;;;;9.53;6.90;;;;;;;21.81;100.00;100076.73;1674623;84;21106;-65
2022/08/08 03:18:59;;;;;;;12.50;6.15;;;;;;;21.87;100.00;100084.41;1676623;83;21493;-69
2022/08/08 03:21:27;;;;;;;10.88;7.90;;;;;;;21.89;100.00;100073.63;1682682;84;21564;-67
2022/08/08 03:23:57;;;;;;;16.30;7.47;;;;;;;21.84;100.00;100073.16;1676026;84;21104;-66
2022/08/08 03:26:36;;;;;;;11.00;7.55;;;;;;;21.93;100.00;100075.66;1698823;83;21071;-67
2022/08/08 03:29:07;;;;;;;12.33;7.80;;;;;;;21.94;100.00;100083.69;1675916;83;22072;-70
2022/08/08 03:34:23;;;;;;;9.03;6.50;;;;;;;22.03;100.00;100072.16;1694502;83;21068;-65
2022/08/08 03:37:01;;;;;;;8.68;7.10;;;;;;;21.95;100.00;100067.09;1678998;83;21059;-67
2022/08/08 03:39:34;;;;;;;10.10;6.78;;;;;;;21.92;100.00;100074.05;1676595;84;21182;-67
2022/08/08 03:42:03;;;;;;;10.55;7.30;;;;;;;21.95;100.00;100084.50;1657744;85;21411;-65
2022/08/08 03:44:38;;;;;;;11.33;7.45;;;;;;;22.02;100.00;100088.79;1676847;84;21072;-67
2022/08/08 03:47:11;;;;;;;10.35;6.67;;;;;;;21.93;100.00;100089.09;1676666;84;21017;-65
2022/08/08 03:49:41;;;;;;;11.70;6.58;;;;;;;21.92;100.00;100086.67;1673148;84;21482;-64
2022/08/08 03:52:09;;;;;;;8.60;6.08;;;;;;;21.96;100.00;100094.52;1679638;81;21065;-67
2022/08/08 03:54:37;;;;;;;12.28;7.45;;;;;;;22.01;100.00;100092.77;1676716;84;21599;-64
2022/08/08 03:57:15;;;;;;;10.82;8.18;;;;;;;22.07;100.00;100093.23;1676507;84;21021;-66
2022/08/08 03:59:42;;;;;;;11.35;7.58;;;;;;;22.08;100.00;100093.44;1683494;84;21057;-66
2022/08/08 04:02:19;;;;;;;10.23;7.65;;;;;;;22.00;100.00;100098.17;1689262;84;20989;-67
2022/08/08 04:04:49;;;;;;;12.10;6.45;;;;;;;21.96;100.00;100091.70;1722845;82;21091;-66
2022/08/08 04:07:16;;;;;;;17.27;7.75;;;;;;;21.98;100.00;100095.77;1690362;84;21114;-66
2022/08/08 04:09:48;;;;;;;14.45;7.42;;;;;;;22.07;100.00;100094.64;1698208;83;20987;-67
2022/08/08 04:12:17;;;;;;;12.75;7.75;;;;;;;22.05;100.00;100097.83;1688414;83;21024;-64
2022/08/08 04:14:45;;;;;;;10.63;6.62;;;;;;;21.95;100.00;100088.13;1690675;83;21136;-65
2022/08/08 04:17:13;;;;;;;12.23;7.10;;;;;;;21.91;100.00;100100.47;1690180;83;21576;-68
2022/08/08 04:19:41;;;;;;;11.20;7.30;;;;;;;21.96;100.00;100102.93;1690216;83;21616;-67
2022/08/08 04:22:13;;;;;;;10.90;6.78;;;;;;;22.03;100.00;100110.61;1696319;83;21075;-68
2022/08/08 04:24:40;;;;;;;9.30;6.78;;;;;;;22.08;100.00;100104.06;1689271;82;21087;-66
2022/08/08 04:27:12;;;;;;;14.93;7.67;;;;;;;22.09;100.00;100107.08;1681257;84;21025;-67
2022/08/08 04:29:38;;;;;;;13.45;7.62;;;;;;;22.11;100.00;100103.30;1699437;83;21161;-65
2022/08/08 04:32:08;;;;;;;11.08;6.53;;;;;;;22.19;100.00;100098.58;1692604;83;21530;-65
2022/08/08 04:34:35;;;;;;;11.28;6.65;;;;;;;22.24;100.00;100096.82;1689995;83;21017;-68
2022/08/08 04:37:11;;;;;;;11.63;8.00;;;;;;;22.27;100.00;100100.84;1690581;83;21504;-65
2022/08/08 04:39:42;;;;;;;10.08;6.60;;;;;;;22.30;100.00;100109.06;1689558;82;21040;-66
2022/08/08 04:42:11;;;;;;;9.85;7.20;;;;;;;22.29;100.00;100099.86;1691041;83;21559;-66
2022/08/08 04:44:40;;;;;;;10.93;7.37;;;;;;;22.21;100.00;100101.78;1691319;83;21491;-67
2022/08/08 04:47:09;;;;;;;11.25;7.03;;;;;;;22.16;100.00;100099.32;1691052;83;21715;-65
2022/08/08 04:49:38;;;;;;;9.28;7.40;;;;;;;22.18;100.00;100098.34;1683459;83;21061;-67
2022/08/08 04:52:08;;;;;;;9.50;7.03;;;;;;;22.22;100.00;100108.20;1693802;83;21025;-66
2022/08/08 04:54:37;;;;;;;12.58;6.85;;;;;;;22.25;100.00;100119.47;1692246;83;20997;-69
2022/08/08 04:57:06;;;;;;;11.88;6.80;;;;;;;22.22;100.00;100109.61;1693527;83;21494;-66
2022/08/08 04:59:35;;;;;;;12.05;6.78;;;;;;;22.23;100.00;100108.41;1687174;83;21091;-67
2022/08/08 05:02:04;;;;;;;13.55;6.40;;;;;;;22.27;100.00;100109.25;1676945;83;21040;-66
2022/08/08 05:04:34;;;;;;;11.35;8.10;;;;;;;22.33;100.00;100105.51;1677249;84;21036;-68
2022/08/08 05:07:09;;;;;;;10.15;6.65;;;;;;;22.33;100.00;100103.48;1689597;83;21502;-65
2022/08/08 05:09:39;;;;;;;7.58;6.53;;;;;;;22.25;100.00;100107.43;1665762;84;21148;-65
2022/08/08 05:12:10;;;;;;;14.73;6.72;;;;;;;22.29;100.00;100112.48;1690838;83;21497;-64
2022/08/08 05:14:38;;;;;;;14.28;7.15;;;;;;;22.38;100.00;100112.96;1687379;83;21076;-65
2022/08/08 05:17:08;;;;;;;12.10;7.40;;;;;;;22.31;100.00;100111.52;1685805;83;21503;-65
2022/08/08 05:19:36;;;;;;;10.20;6.80;;;;;;;22.31;100.00;100114.31;1688612;83;21098;-66
2022/08/08 05:22:06;;;;;;;11.00;7.20;;;;;;;22.33;100.00;100116.12;1687586;83;21118;-72
2022/08/08 05:24:38;;;;;;;11.83;6.73;;;;;;;22.40;100.00;100113.19;1688618;84;21515;-66
2022/08/08 05:27:08;;;;;;;10.18;6.97;;;;;;;22.44;100.00;100124.65;1688478;83;21035;-68
2022/08/08 05:29:39;;;;;;;14.87;6.50;;;;;;;22.47;100.00;100125.86;1688866;83;21541;-65
2022/08/08 05:32:09;;;;;;;9.75;6.67;;;;;;;22.54;100.00;100132.95;1696995;83;21079;-66
2022/08/08 05:34:48;;;;;;;12.90;7.08;;;;;;;22.57;100.00;100134.19;1689345;83;21248;-65
2022/08/08 05:37:20;;;;;;;16.32;7.10;;;;;;;22.56;100.00;100135.36;1694033;83;20985;-66
2022/08/08 05:39:54;;;;;;;14.23;7.83;;;;;;;22.58;100.00;100140.00;1690094;83;21490;-67
2022/08/08 05:42:40;;;;;;;9.70;7.33;;;;;;;22.56;100.00;100140.39;1695801;83;21006;-67
2022/08/08 05:45:13;;;;;;;9.35;7.67;;;;;;;22.48;100.00;100141.53;1690683;83;21076;-75
2022/08/08 05:47:42;;;;;;;16.50;8.10;;;;;;;22.46;100.00;100149.52;1688025;83;21169;-69
2022/08/08 05:50:11;;;;;;;17.05;8.08;;;;;;;22.42;100.00;100146.67;1690839;83;21077;-68
2022/08/08 05:52:38;;;;;;;11.97;7.53;;;;;;;22.44;100.00;100149.09;1721495;82;22239;-65
2022/08/08 05:55:10;;;;;;;17.85;8.80;;;;;;;22.53;100.00;100152.98;1689687;83;21032;-69
2022/08/08 05:57:41;;;;;;;25.43;9.13;;;;;;;22.61;100.00;100148.48;1653718;86;21504;-66
2022/08/08 06:00:11;;;;;;;12.95;9.08;;;;;;;22.60;100.00;100140.42;1639623;86;21201;-64
2022/08/08 06:03:10;;;;;;;11.30;8.30;;;;;;;22.53;100.00;100137.55;1639422;86;21040;-68
2022/08/08 06:05:56;;;;;;;9.93;8.00;;;;;;;22.53;100.00;100145.38;1645371;85;21039;-65
2022/08/08 06:08:32;;;;;;;18.05;8.08;;;;;;;22.56;100.00;100145.19;1643627;85;26610;-66
2022/08/08 06:11:04;;;;;;;13.15;9.18;;;;;;;22.64;100.00;100150.31;1641647;85;21101;-65
2022/08/08 06:13:31;;;;;;;11.05;7.37;;;;;;;22.57;100.00;100146.82;1651470;85;21604;-69
2022/08/08 06:16:00;;;;;;;12.85;8.10;;;;;;;22.51;100.00;100146.36;1645946;85;21041;-66
2022/08/08 06:18:46;;;;;;;12.60;9.33;;;;;;;22.53;100.00;100149.59;1646721;85;21081;-66
2022/08/08 06:21:16;;;;;;;11.33;8.88;;;;;;;22.51;100.00;100150.57;1647494;85;21163;-68
2022/08/08 06:23:49;;;;;;;11.97;9.58;;;;;;;22.47;100.00;100153.93;1643198;85;21076;-65
2022/08/08 06:26:16;;;;;;;16.70;8.75;;;;;;;22.52;100.00;100153.58;1642568;85;21499;-66
2022/08/08 06:28:54;;;;;;;18.57;8.73;;;;;;;22.52;100.00;100152.17;1644945;87;21054;-67
2022/08/08 06:31:21;;;;;;;14.75;8.53;;;;;;;22.48;100.00;100156.34;1647364;85;21026;-65
2022/08/08 06:34:01;;;;;;;15.75;8.88;;;;;;;22.49;100.00;100153.77;1646926;85;21082;-69
2022/08/08 06:36:38;;;;;;;12.37;8.98;;;;;;;22.45;100.00;100157.12;1646646;85;21074;-68
2022/08/08 06:39:10;;;;;;;16.87;9.78;;;;;;;22.45;100.00;100161.34;1628981;85;21165;-69
2022/08/08 06:41:55;;;;;;;14.73;9.40;;;;;;;22.53;100.00;100169.24;1643338;85;21562;-66
2022/08/08 06:44:24;;;;;;;14.55;8.68;;;;;;;22.61;100.00;100166.73;1629377;85;21066;-65
2022/08/08 06:46:54;;;;;;;16.12;9.35;;;;;;;22.64;100.00;100173.56;1644820;87;21102;-67
2022/08/08 06:49:23;;;;;;;16.37;9.73;;;;;;;22.61;100.00;100169.55;1644726;85;21045;-67
2022/08/08 06:51:54;;;;;;;20.43;9.35;;;;;;;22.53;100.00;100176.85;1619406;85;21101;-66
2022/08/08 06:54:22;;;;;;;12.95;9.30;;;;;;;22.67;100.00;100183.23;1648853;85;21101;-67
2022/08/08 06:56:51;;;;;;;14.05;10.40;;;;;;;22.76;100.00;100181.51;1628820;86;21025;-66
2022/08/08 06:59:27;;;;;;;14.20;9.95;;;;;;;22.80;100.00;100179.52;1649061;85;21109;-68
2022/08/08 07:02:06;;;;;;;13.62;8.48;;;;;;;22.73;100.00;100178.86;1647870;85;20994;-66
2022/08/08 07:04:54;;;;;;;9.55;8.53;;;;;;;22.69;100.00;100171.80;1648630;85;21179;-65
2022/08/08 07:07:54;;;;;;;14.70;8.63;;;;;;;22.77;100.00;100177.49;1633678;85;21069;-68
2022/08/08 07:10:25;;;;;;;12.85;8.83;;;;;;;22.81;100.00;100169.30;1649233;85;21077;-66
2022/08/08 07:13:03;;;;;;;14.20;9.25;;;;;;;22.83;100.00;100177.33;1647222;87;21120;-65
2022/08/08 07:15:45;;;;;;;11.25;8.38;;;;;;;22.92;100.00;100184.03;1647336;86;20998;-67
2022/08/08 07:18:35;;;;;;;28.07;9.63;;;;;;;22.97;100.00;100185.07;1646196;87;21117;-65
2022/08/08 07:21:06;;;;;;;9.68;8.23;;;;;;;23.00;100.00;100178.67;1644220;87;21462;-65
2022/08/08 07:23:41;;;;;;;12.80;8.23;;;;;;;23.02;100.00;100183.30;1652256;86;21057;-66
2022/08/08 07:26:12;;;;;;;13.50;9.08;;;;;;;22.95;100.00;100181.25;1646420;86;21053;-66
2022/08/08 07:28:41;;;;;;;11.20;8.30;;;;;;;23.13;100.00;100188.20;1608902;87;21116;-65
2022/08/08 07:31:09;;;;;;;11.18;7.75;;;;;;;23.20;100.00;100186.23;1647016;86;21708;-66
2022/08/08 07:33:40;;;;;;;16.07;8.15;;;;;;;23.15;100.00;100183.78;1647152;86;21077;-66
2022/08/08 07:36:10;;;;;;;14.55;8.45;;;;;;;23.08;100.00;100190.78;1647227;87;21076;-66
2022/08/08 07:38:37;;;;;;;10.45;8.08;;;;;;;23.13;100.00;100181.98;1647353;85;21066;-67
2022/08/08 07:41:09;;;;;;;11.68;8.15;;;;;;;23.24;100.00;100189.06;1647144;86;21041;-66
2022/08/08 07:43:37;;;;;;;11.38;7.95;;;;;;;23.32;100.00;100185.10;1647479;87;21741;-66
2022/08/08 07:46:08;;;;;;;9.95;7.87;;;;;;;23.44;100.00;100184.62;1629256;87;21073;-67
2022/08/08 07:48:35;;;;;;;8.73;7.83;;;;;;;23.53;100.00;100186.45;1647209;87;21033;-67
2022/08/08 07:51:08;;;;;;;11.15;8.25;;;;;;;23.62;100.00;100182.48;1644046;87;21571;-66
2022/08/08 07:53:52;;;;;;;15.38;7.22;;;;;;;23.71;100.00;100177.31;1646639;85;21518;-69
2022/08/08 07:56:24;;;;;;;7.58;6.80;;;;;;;23.68;100.00;100183.70;1646323;86;21138;-68
2022/08/08 07:58:54;;;;;;;9.73;7.60;;;;;;;23.78;100.00;100181.55;1646402;87;21068;-67
2022/08/08 08:01:25;;;;;;;11.08;7.47;;;;;;;23.92;100.00;100182.20;1647487;86;21108;-68
2022/08/08 08:04:00;;;;;;;13.20;9.05;;;;;;;23.93;100.00;100177.39;1622718;87;21337;-68
2022/08/08 08:06:28;;;;;;;11.48;8.63;;;;;;;23.69;100.00;100174.90;1643578;85;21089;-67
2022/08/08 08:09:07;;;;;;;11.25;8.20;;;;;;;23.50;100.00;100181.62;1647545;85;21130;-68
2022/08/08 08:11:45;;;;;;;16.57;9.15;;;;;;;23.50;100.00;100187.84;1620891;87;21089;-70
2022/08/08 08:14:38;;;;;;;15.80;9.85;;;;;;;23.51;100.00;100184.64;1621167;88;21065;-67
2022/08/08 08:17:08;;;;;;;15.63;8.85;;;;;;;23.45;100.00;100186.22;1646137;85;21034;-66
2022/08/08 08:19:38;;;;;;;13.00;9.90;;;;;;;23.43;100.00;100197.86;1671746;85;21057;-67
2022/08/08 08:22:05;;;;;;;16.95;9.73;;;;;;;23.33;100.00;100195.75;1646891;85;21250;-65
2022/08/08 08:24:44;;;;;;;11.12;9.33;;;;;;;23.29;100.00;100197.13;1645512;85;21113;-66
2022/08/08 08:27:13;;;;;;;15.10;9.48;;;;;;;23.23;100.00;100199.50;1646263;85;22181;-69
2022/08/08 08:29:45;;;;;;;20.87;9.23;;;;;;;23.13;100.00;100205.05;1646876;85;21153;-67
2022/08/08 08:32:15;;;;;;;17.55;10.72;;;;;;;23.14;100.00;100202.45;1644771;86;21033;-67
2022/08/08 08:34:45;;;;;;;15.00;9.95;;;;;;;23.13;100.00;100203.06;1647168;85;22219;-68
2022/08/08 08:37:15;;;;;;;18.95;10.08;;;;;;;23.08;100.00;100202.02;1644304;87;21522;-67
2022/08/08 08:39:49;;;;;;;13.15;10.08;;;;;;;23.10;100.00;100202.41;1647343;85;21073;-67
2022/08/08 08:42:16;;;;;;;;;;;;;;;23.23;100.00;100207.14;1645914;86;21037;-69
2022/08/08 08:44:46;;;;;;;15.05;10.72;;;;;;;23.23;100.00;100202.30;1641510;87;20498;-68
2022/08/08 08:47:21;;;;;;;16.35;11.38;;;;;;;23.19;100.00;100207.11;1647110;86;21147;-65
2022/08/08 08:49:48;;;;;;;17.07;11.55;;;;;;;23.18;100.00;100204.69;1639947;85;21070;-67
2022/08/08 08:52:16;;;;;;;13.95;11.38;;;;;;;23.30;100.00;100204.98;1646185;87;21113;-66
2022/08/08 08:54:44;;;;;;;22.07;11.20;;;;;;;23.28;100.00;100205.38;1645223;85;21048;-65
2022/08/08 08:57:12;;;;;;;13.85;10.50;;;;;;;23.26;100.00;100211.16;1646752;85;21419;-67
2022/08/08 08:59:43;;;;;;;14.20;10.58;;;;;;;23.24;100.00;100208.74;1647050;85;21489;-68
2022/08/08 09:02:23;;;;;;;16.97;11.75;;;;;;;23.25;100.00;100213.19;1641951;85;21094;-66
2022/08/08 09:04:58;;;;;;;16.00;10.23;;;;;;;23.25;100.00;100217.40;1643979;85;21057;-66
2022/08/08 09:07:25;;;;;;;15.55;10.82;;;;;;;23.25;100.00;100213.77;1643095;85;21261;-66
2022/08/08 09:09:53;;;;;;;11.85;10.40;;;;;;;23.33;100.00;100215.43;1641963;86;21601;-68
2022/08/08 09:12:28;;;;;;;17.80;10.95;;;;;;;23.35;100.00;100213.05;1640555;87;21506;-66
2022/08/08 09:14:58;;;;;;;16.50;10.88;;;;;;;23.45;100.00;100214.33;1643721;85;21030;-66
2022/08/08 09:17:29;;;;;;;13.55;9.50;;;;;;;23.58;100.00;100211.39;1645002;85;21488;-66
2022/08/08 09:19:59;;;;;;;12.60;10.13;;;;;;;23.64;100.00;100208.20;1616138;85;21104;-66
2022/08/08 09:22:26;;;;;;;14.83;9.23;;;;;;;23.68;100.00;100211.83;1643242;85;21136;-66
2022/08/08 09:24:54;;;;;;;15.23;9.63;;;;;;;23.74;100.00;100211.67;1641846;87;21151;-68
2022/08/08 09:27:24;;;;;;;9.55;8.25;;;;;;;23.87;100.00;100212.12;1640506;85;21089;-68
2022/08/08 09:30:05;;;;;;;12.80;8.78;;;;;;;23.95;100.00;100203.13;1642385;87;21136;-70
2022/08/08 09:32:46;;;;;;;15.13;9.10;;;;;;;24.07;100.00;100194.94;1640053;85;21533;-66
2022/08/08 09:35:20;;;;;;;14.55;8.63;;;;;;;24.03;100.00;100182.25;1641351;85;21057;-67
2022/08/08 09:38:02;;;;;;;11.15;8.53;;;;;;;24.10;100.00;100190.51;1612841;85;21262;-66
2022/08/08 09:40:33;;;;;;;11.43;8.57;;;;;;;24.22;100.00;100190.17;1646454;85;21114;-66
2022/08/08 09:43:17;;;;;;;11.33;8.03;;;;;;;24.42;100.00;100189.20;1645463;85;21034;-67
2022/08/08 09:46:00;;;;;;;13.05;10.40;;;;;;;24.58;100.00;100187.21;1645474;85;21649;-65
2022/08/08 09:48:40;;;;;;;12.73;9.98;;;;;;;24.63;100.00;100182.00;1641812;85;21058;-64
2022/08/08 09:51:06;;;;;;;11.18;9.58;;;;;;;24.65;100.00;100183.78;1655033;86;21150;-67
2022/08/08 09:53:48;;;;;;;14.63;10.88;;;;;;;24.64;100.00;100187.00;1626467;88;21613;-65
2022/08/08 09:56:17;;;;;;;12.73;10.58;;;;;;;24.55;100.00;100188.20;1661084;84;21085;-65
2022/08/08 09:58:56;;;;;;;13.45;10.65;;;;;;;24.50;100.00;100187.20;1670148;84;21092;-73
2022/08/08 10:01:25;;;;;;;14.75;11.38;;;;;;;24.54;100.00;100195.65;1658242;84;21578;-68
2022/08/08 10:03:52;;;;;;;14.55;12.00;;;;;;;24.65;100.00;100198.48;1646778;85;21240;-71
2022/08/08 10:06:19;;;;;;;17.73;9.85;;;;;;;24.72;100.00;100188.61;1658656;85;21014;-67
2022/08/08 10:08:53;;;;;;;18.92;12.80;;;;;;;24.68;100.00;100191.42;1657284;85;21078;-67
2022/08/08 10:11:24;;;;;;;14.50;11.12;;;;;;;24.80;100.00;100195.86;1658134;85;21108;-67
2022/08/08 10:14:01;;;;;;;14.25;11.40;;;;;;;24.91;100.00;100189.45;1655792;86;21044;-69
2022/08/08 10:16:39;;;;;;;17.67;12.88;;;;;;;24.87;100.00;100185.81;1659954;85;21668;-69
2022/08/08 10:19:11;;;;;;;16.02;11.48;;;;;;;24.64;100.00;100184.19;1690285;83;21064;-67
2022/08/08 10:21:41;;;;;;;16.23;10.80;;;;;;;24.52;100.00;100190.42;1690668;83;21569;-66
2022/08/08 10:24:13;;;;;;;12.00;9.35;;;;;;;24.60;100.00;100190.44;1680625;84;21085;-66
2022/08/08 10:26:47;;;;;;;11.33;8.93;;;;;;;24.54;100.00;100193.65;1689504;85;21009;-67
2022/08/08 10:29:14;;;;;;;15.50;10.00;;;;;;;24.72;100.00;100197.69;1689519;83;21131;-66
2022/08/08 10:34:30;;;;;;;13.13;10.53;;;;;;;24.96;100.00;100198.91;1674932;84;21572;-66
2022/08/08 10:36:57;;;;;;;15.98;8.93;;;;;;;24.99;100.00;100193.87;1690634;83;22238;-66
2022/08/08 10:39:26;;;;;;;11.70;9.00;;;;;;;24.98;100.00;100190.05;1721240;82;21128;-64
2022/08/08 10:42:03;;;;;;;9.50;8.50;;;;;;;25.10;100.00;100193.05;1690993;83;21163;-66
2022/08/08 10:44:40;;;;;;;9.48;8.48;;;;;;;25.16;100.00;100192.86;1688632;84;21032;-66
2022/08/08 10:47:18;;;;;;;11.83;9.10;;;;;;;25.18;100.00;100190.42;1692624;83;21013;-66
2022/08/08 10:49:57;;;;;;;12.28;8.28;;;;;;;25.12;100.00;100183.59;1692777;83;21047;-66
2022/08/08 10:52:36;;;;;;;8.90;7.62;;;;;;;25.10;100.00;100177.55;1689492;83;21092;-65
2022/08/08 10:55:16;;;;;;;11.75;6.90;;;;;;;25.23;100.00;100171.69;1689472;84;22100;-66
2022/08/08 10:57:48;;;;;;;13.00;7.70;;;;;;;25.33;100.00;100172.90;1701306;83;21033;-66
2022/08/08 11:00:24;;;;;;;12.58;7.85;;;;;;;25.30;100.00;100167.27;1720019;82;21040;-65
2022/08/08 11:02:53;;;;;;;11.75;7.83;;;;;;;25.34;100.00;100163.81;1721970;82;21004;-68
2022/08/08 11:05:22;;;;;;;10.55;7.62;;;;;;;25.40;100.00;100170.66;1715497;82;21106;-65
2022/08/08 11:07:56;;;;;;;12.53;8.28;;;;;;;25.46;100.00;100164.80;1684998;84;21055;-66
2022/08/08 11:10:26;;;;;;;16.17;8.00;;;;;;;25.40;100.00;100154.53;1684948;85;21082;-66
2022/08/08 11:12:58;;;;;;;10.72;7.65;;;;;;;25.26;100.00;100154.58;1685442;85;21608;-66
2022/08/08 11:15:31;;;;;;;10.50;8.75;;;;;;;25.13;100.00;100157.04;1685382;85;21019;-68
2022/08/08 11:18:00;;;;;;;8.30;7.42;;;;;;;25.02;100.00;100160.67;1685518;85;21504;-66
2022/08/08 11:20:28;;;;;;;11.80;8.18;;;;;;;25.07;100.00;100162.87;1685388;84;21599;-69
2022/08/08 11:23:01;;;;;;;9.83;7.70;;;;;;;25.06;100.00;100153.59;1660292;82;21049;-68
2022/08/08 11:25:31;;;;;;;10.05;8.35;;;;;;;25.13;100.00;100164.08;1657630;86;21078;-65
2022/08/08 11:28:05;;;;;;;11.28;8.05;;;;;;;25.25;100.00;100164.23;1705951;82;21496;-71
2022/08/08 11:30:37;;;;;;;15.03;9.15;;;;;;;25.29;100.00;100167.86;1683793;84;21015;-70
2022/08/08 11:33:07;;;;;;;11.85;9.03;;;;;;;25.42;100.00;100165.40;1657925;84;21053;-67
2022/08/08 11:35:35;;;;;;;20.57;9.78;;;;;;;25.55;100.00;100163.55;1660256;83;21030;-67
2022/08/08 11:38:02;;;;;;;12.65;8.80;;;;;;;25.55;100.00;100158.73;1693101;84;21037;-67
2022/08/08 11:40:30;;;;;;;17.37;8.93;;;;;;;25.52;100.00;100159.55;1690209;82;21060;-65
2022/08/08 11:43:01;;;;;;;9.20;7.85;;;;;;;25.38;100.00;100153.34;1658048;86;21006;-66
2022/08/08 11:45:30;;;;;;;10.20;8.23;;;;;;;25.40;100.00;100152.34;1634208;84;21143;-65
2022/08/08 11:47:58;;;;;;;15.00;9.00;;;;;;;25.34;100.00;100144.08;1693491;84;21044;-66
2022/08/08 11:50:26;;;;;;;15.65;9.55;;;;;;;25.33;100.00;100143.89;1694332;84;22021;-68
2022/08/08 11:52:56;;;;;;;14.68;8.70;;;;;;;25.31;100.00;100143.48;1694209;84;20985;-66
2022/08/08 11:55:27;;;;;;;12.13;9.70;;;;;;;25.28;100.00;100147.94;1702249;82;21083;-66
2022/08/08 11:58:09;;;;;;;11.55;8.75;;;;;;;25.30;100.00;100140.48;1693839;83;21762;-66
2022/08/08 12:00:49;;;;;;;9.68;8.08;;;;;;;25.31;100.00;100144.90;1693477;84;21048;-72
2022/08/08 12:03:22;;;;;;;14.98;8.30;;;;;;;25.46;100.00;100146.47;1688477;83;21048;-64
2022/08/08 12:05:59;;;;;;;13.32;8.10;;;;;;;25.49;100.00;100140.00;1688003;83;21028;-67